Startpagina
METAR-TAF:

METAR-TAF

Vliegvelden :

Tongatapu, Tonga

breedte: 21-14S, lengte: 175-09W, hoogte: 38 m

Actueel weer

Dit bericht is 52 minuten geleden gemaakt, om 21:00 UTC
Wind 10 kt uit het zuidoosten
Temperatuur 25°C
Vochtigheid 83%
Druk 1014 hPa
Zicht 10 km of meer
Weinig wolken op 1000 ft
Weinig wolken op 1700 ft, Stapelwolken.

METAR: NFTF 162100Z 14010KT 9999 FEW010 FEW017TCU 25/22 Q1014

Tijdstip: 10:52 (21:52 UTC)

Verwachting

Dit bericht is 4 uur en het 48 minuten geleden gemaakt, om 17:04 UTC
Verwachting geldig van 16 om 18 UTC tot 17 om 18 UTC
Wind 6 kt uit het zuidzuidoosten
Zicht 10 km of meer
Verspreide wolken op 1600 ft

TAF: NFTF 161704Z 1618/1718 15006KT 9999 SCT016

Waarnemingen en weersverwachtingen van meer dan 4000 vliegvelden (METAR en TAF).

De beschikbare stations zijn de gele en rode punten op de kaart.

Ga met uw muis naar het station om de naam te zien.

Klik dan om waarnemingen en weersverwachtingen te zien.

kaart wijzigen: klik op de groene knoppen met een zwart kruis om in te zoomen, op de groene knop met een streepje om uit te zoomen of op de groene pijlen voor aangrenzende kaarten.


METAR-TAF: